Time;durP1;ratioP1;P1;durP2;ratioP2;P2;SDS_P1;SDS_P2;PMS_P1;PMS_P2;Temp;Humidity;BMP_temperature;BMP_pressure;BME280_temperature;BME280_humidity;BME280_pressure;Samples;Min_cycle;Max_cycle;Signal;HPM_P1;HPM_P2
2023/11/17 00:01:28;;;;;;;8.80;7.50;;;;;;;4.93;100.00;101604.63;5090744;28;20028;-35
2023/11/17 00:03:54;;;;;;;7.75;6.85;;;;;;;4.83;100.00;101594.97;5089825;28;20048;-35
2023/11/17 00:06:19;;;;;;;8.20;7.40;;;;;;;4.95;100.00;101606.13;5089798;28;20039;-35
2023/11/17 00:08:46;;;;;;;7.72;6.07;;;;;;;4.99;100.00;101603.94;5078965;28;20040;-35
2023/11/17 00:11:11;;;;;;;7.72;6.88;;;;;;;4.97;100.00;101603.28;5076502;28;20028;-34
2023/11/17 00:13:38;;;;;;;6.80;6.15;;;;;;;5.00;100.00;101616.34;5076180;28;20025;-35
2023/11/17 00:16:06;;;;;;;8.18;7.25;;;;;;;4.93;100.00;101631.44;5076045;28;20453;-35
2023/11/17 00:18:35;;;;;;;7.22;6.22;;;;;;;4.89;100.00;101623.75;5076058;28;20039;-35
2023/11/17 00:21:02;;;;;;;7.70;6.55;;;;;;;4.88;100.00;101634.63;5076079;28;20028;-35
2023/11/17 00:23:28;;;;;;;9.48;6.53;;;;;;;4.86;100.00;101640.19;5076515;28;20445;-34
2023/11/17 00:25:56;;;;;;;7.75;7.05;;;;;;;4.88;100.00;101640.00;5076302;28;20032;-34
2023/11/17 00:28:25;;;;;;;9.98;7.93;;;;;;;4.83;100.00;101647.72;5075668;28;20032;-34
2023/11/17 00:30:51;;;;;;;8.15;6.60;;;;;;;4.84;100.00;101647.56;5076433;28;20073;-35
2023/11/17 00:33:17;;;;;;;8.27;7.18;;;;;;;4.83;100.00;101651.25;5076043;28;20094;-35
2023/11/17 00:35:46;;;;;;;10.27;7.03;;;;;;;4.84;100.00;101658.28;5075836;28;20431;-34
2023/11/17 00:38:12;;;;;;;7.32;6.63;;;;;;;4.83;100.00;101651.25;5075394;28;20066;-35
2023/11/17 00:40:38;;;;;;;8.93;7.03;;;;;;;4.72;100.00;101643.56;5075727;28;20029;-34
2023/11/17 00:43:04;;;;;;;7.73;6.87;;;;;;;4.80;100.00;101654.28;5075446;28;20016;-34
2023/11/17 00:45:29;;;;;;;9.30;7.88;;;;;;;4.82;100.00;101660.28;5076426;28;20056;-35
2023/11/17 00:47:55;;;;;;;6.75;6.00;;;;;;;4.86;100.00;101652.75;5075831;28;20115;-35
2023/11/17 00:50:20;;;;;;;8.77;6.72;;;;;;;4.89;100.00;101658.59;5075837;28;20025;-35
2023/11/17 00:52:46;;;;;;;10.13;7.13;;;;;;;4.86;100.00;101660.78;5076033;28;20024;-34
2023/11/17 00:55:13;;;;;;;7.70;6.88;;;;;;;4.86;100.00;101666.97;5075171;28;20052;-34
2023/11/17 00:57:42;;;;;;;8.38;7.05;;;;;;;4.85;100.00;101667.16;5076418;28;20087;-35
2023/11/17 01:00:11;;;;;;;7.63;6.82;;;;;;;4.80;100.00;101666.84;5076111;28;20035;-34
2023/11/17 01:02:38;;;;;;;8.20;6.70;;;;;;;4.77;100.00;101668.00;5075443;28;20029;-34
2023/11/17 01:05:05;;;;;;;7.00;6.30;;;;;;;4.74;100.00;101665.69;5074332;28;20028;-35
2023/11/17 01:07:31;;;;;;;9.82;7.10;;;;;;;4.65;100.00;101664.03;5073892;28;20028;-34
2023/11/17 01:09:56;;;;;;;9.30;6.67;;;;;;;4.73;100.00;101679.25;5075718;28;20024;-35
2023/11/17 01:12:21;;;;;;;7.80;6.30;;;;;;;4.69;100.00;101657.34;5075637;28;20028;-34
2023/11/17 01:14:47;;;;;;;7.17;6.20;;;;;;;4.80;100.00;101688.28;5075591;28;20037;-35
2023/11/17 01:17:12;;;;;;;7.57;6.80;;;;;;;4.74;100.00;101689.81;5075015;28;20020;-34
2023/11/17 01:19:40;;;;;;;8.48;6.70;;;;;;;4.75;100.00;101683.44;5073958;28;20024;-34
2023/11/17 01:22:06;;;;;;;7.85;6.20;;;;;;;4.77;100.00;101684.09;5075463;28;20043;-35
2023/11/17 01:24:32;;;;;;;10.95;8.05;;;;;;;4.71;100.00;101676.75;5075307;28;20111;-35
2023/11/17 01:26:58;;;;;;;6.72;5.95;;;;;;;4.81;100.00;101684.59;5074824;28;20031;-35
2023/11/17 01:29:23;;;;;;;8.83;6.33;;;;;;;4.77;100.00;101694.81;5075044;28;20024;-35
2023/11/17 01:31:49;;;;;;;7.57;6.87;;;;;;;4.78;100.00;101695.63;5075577;28;20052;-34
2023/11/17 01:34:14;;;;;;;8.13;7.30;;;;;;;4.62;100.00;101667.06;5074564;28;20476;-35
2023/11/17 01:36:40;;;;;;;8.90;7.17;;;;;;;4.76;100.00;101700.34;5074298;28;20032;-35
2023/11/17 01:39:05;;;;;;;9.33;8.33;;;;;;;4.80;100.00;101699.00;5074794;28;20038;-35
2023/11/17 01:41:30;;;;;;;8.27;7.40;;;;;;;4.77;100.00;101700.16;5075038;28;20021;-35
2023/11/17 01:43:57;;;;;;;9.70;7.83;;;;;;;4.70;100.00;101684.97;5074453;28;20029;-34
2023/11/17 01:46:24;;;;;;;10.38;8.20;;;;;;;4.78;100.00;101706.34;5074683;28;20508;-35
2023/11/17 01:48:49;;;;;;;11.32;7.90;;;;;;;4.78;100.00;101696.50;5074244;28;20028;-34
2023/11/17 01:51:15;;;;;;;8.82;7.05;;;;;;;4.75;100.00;101696.00;5074586;28;20036;-35
2023/11/17 01:53:41;;;;;;;9.00;7.63;;;;;;;4.83;100.00;101691.47;5074268;28;20024;-35
2023/11/17 01:56:07;;;;;;;11.25;8.43;;;;;;;4.78;100.00;101703.69;5073860;28;20131;-35
2023/11/17 01:58:33;;;;;;;9.80;7.75;;;;;;;4.79;100.00;101694.66;5073894;28;20056;-35
2023/11/17 02:01:00;;;;;;;8.05;7.25;;;;;;;4.84;100.00;101708.38;5074144;28;20025;-35
2023/11/17 02:03:26;;;;;;;8.30;7.25;;;;;;;4.75;100.00;101704.88;5073950;28;20025;-35
2023/11/17 02:06:00;;;;;;;11.35;7.13;;;;;;;4.77;100.00;101708.22;5074904;28;20036;-35
2023/11/17 02:08:40;;;;;;;7.68;6.75;;;;;;;4.73;100.00;101704.19;5074284;28;20024;-35
2023/11/17 02:11:20;;;;;;;8.40;6.18;;;;;;;4.83;100.00;101720.06;5074491;28;20048;-34
2023/11/17 02:13:52;;;;;;;8.57;7.53;;;;;;;4.80;100.00;101717.75;5073860;28;20032;-34
2023/11/17 02:16:24;;;;;;;8.88;7.00;;;;;;;4.69;100.00;101704.72;5073574;28;20036;-35
2023/11/17 02:18:54;;;;;;;10.43;6.70;;;;;;;4.78;100.00;101720.63;5073812;28;20388;-35
2023/11/17 02:21:29;;;;;;;7.28;6.53;;;;;;;4.83;100.00;101717.41;5074128;28;20025;-34
2023/11/17 02:23:56;;;;;;;8.05;7.25;;;;;;;4.74;100.00;101708.56;5074320;28;20032;-34
2023/11/17 02:26:33;;;;;;;6.47;5.88;;;;;;;4.81;100.00;101720.25;5073458;28;20043;-34
2023/11/17 02:29:10;;;;;;;7.40;6.20;;;;;;;4.81;100.00;101722.94;5074540;28;20085;-35
2023/11/17 02:31:39;;;;;;;6.35;5.75;;;;;;;4.81;100.00;101716.75;5073234;28;20086;-34
2023/11/17 02:34:07;;;;;;;7.30;6.60;;;;;;;4.77;100.00;101715.41;5073310;28;20516;-34
2023/11/17 02:36:33;;;;;;;7.18;5.78;;;;;;;4.77;100.00;101732.31;5073739;28;20476;-35
2023/11/17 02:39:12;;;;;;;;;;;;;;;4.81;100.00;101720.25;5073992;28;20032;-34
2023/11/17 02:41:38;;;;;;;10.15;7.07;;;;;;;4.73;100.00;101727.47;5073252;28;19912;-34
2023/11/17 02:44:04;;;;;;;8.85;7.15;;;;;;;4.75;100.00;101720.13;5074036;28;20169;-35
2023/11/17 02:46:34;;;;;;;9.48;7.20;;;;;;;4.76;100.00;101711.91;5074064;28;20024;-34
2023/11/17 02:49:10;;;;;;;7.72;6.93;;;;;;;4.63;100.00;101707.06;5073695;28;20373;-34
2023/11/17 02:51:50;;;;;;;9.40;7.07;;;;;;;4.71;100.00;101719.63;5073493;28;20461;-35
2023/11/17 02:54:16;;;;;;;7.85;7.05;;;;;;;4.63;100.00;101711.59;5073926;28;20104;-35
2023/11/17 02:56:42;;;;;;;7.78;6.95;;;;;;;4.51;100.00;101712.97;5074153;28;20044;-35
2023/11/17 02:59:09;;;;;;;8.27;7.47;;;;;;;4.55;100.00;101722.34;5073956;28;20077;-35
2023/11/17 03:01:38;;;;;;;7.57;6.50;;;;;;;4.57;100.00;101728.34;5073132;28;20036;-35
2023/11/17 03:04:13;;;;;;;7.68;6.85;;;;;;;4.57;100.00;101728.34;5073290;28;20021;-35
2023/11/17 03:06:49;;;;;;;8.05;6.53;;;;;;;4.54;100.00;101723.31;5073029;28;20111;-35
2023/11/17 03:09:16;;;;;;;7.72;6.85;;;;;;;4.47;100.00;101723.16;5073607;28;20024;-35
2023/11/17 03:11:44;;;;;;;6.47;5.75;;;;;;;4.57;100.00;101718.47;5073566;28;20032;-35
2023/11/17 03:14:09;;;;;;;8.70;6.53;;;;;;;4.50;100.00;101719.34;5073725;28;20028;-35
2023/11/17 03:16:37;;;;;;;8.82;7.10;;;;;;;4.47;100.00;101716.97;5073135;28;20031;-35
2023/11/17 03:19:10;;;;;;;8.60;6.82;;;;;;;4.45;100.00;101709.13;5073725;28;20025;-35
2023/11/17 03:21:41;;;;;;;7.03;6.18;;;;;;;4.50;100.00;101714.81;5073700;28;20451;-35
2023/11/17 03:24:17;;;;;;;7.93;6.80;;;;;;;4.50;100.00;101713.97;5073623;28;20054;-35
2023/11/17 03:26:44;;;;;;;8.13;6.82;;;;;;;4.51;100.00;101711.13;5073924;28;20039;-35
2023/11/17 03:29:18;;;;;;;9.60;6.90;;;;;;;4.52;100.00;101714.63;5073822;28;20036;-35
2023/11/17 03:31:48;;;;;;;7.80;7.07;;;;;;;4.53;100.00;101713.63;5073867;28;20095;-35
2023/11/17 03:34:29;;;;;;;7.38;5.95;;;;;;;4.57;100.00;101721.16;5073235;28;20036;-35
2023/11/17 03:37:00;;;;;;;6.05;5.50;;;;;;;4.51;100.00;101723.69;5073168;28;20081;-35
2023/11/17 03:39:28;;;;;;;6.32;5.72;;;;;;;4.60;100.00;101715.47;5072694;28;20111;-35
2023/11/17 03:41:54;;;;;;;6.85;5.85;;;;;;;4.58;100.00;101717.44;5073252;28;20067;-35
2023/11/17 03:44:27;;;;;;;6.50;5.75;;;;;;;4.61;100.00;101713.63;5076811;28;20024;-35
2023/11/17 03:46:58;;;;;;;7.05;6.38;;;;;;;4.57;100.00;101706.91;5077500;28;20063;-35
2023/11/17 03:49:25;;;;;;;7.57;6.45;;;;;;;4.56;100.00;101716.81;5077153;28;20090;-35
2023/11/17 03:51:53;;;;;;;7.93;6.53;;;;;;;4.56;100.00;101727.50;5076592;28;20029;-35
2023/11/17 03:54:21;;;;;;;8.27;7.18;;;;;;;4.33;100.00;101689.88;5076716;28;20020;-35
2023/11/17 03:56:48;;;;;;;8.75;6.63;;;;;;;4.53;100.00;101721.66;5076224;28;20202;-35
2023/11/17 03:59:13;;;;;;;6.70;6.05;;;;;;;4.56;100.00;101718.66;5075950;28;20032;-35
2023/11/17 04:01:43;;;;;;;8.57;6.83;;;;;;;4.53;100.00;101718.97;5076993;28;20027;-35
2023/11/17 04:04:08;;;;;;;8.15;7.35;;;;;;;4.49;100.00;101721.19;5076553;28;20626;-35
2023/11/17 04:06:34;;;;;;;8.25;6.55;;;;;;;4.46;100.00;101713.47;5076425;28;20032;-35
2023/11/17 04:09:07;;;;;;;9.00;6.90;;;;;;;4.51;100.00;101718.31;5076209;28;20028;-35
2023/11/17 04:11:33;;;;;;;7.93;7.13;;;;;;;4.51;100.00;101724.50;5076529;28;20024;-35
2023/11/17 04:13:59;;;;;;;;;;;;;;;4.62;100.00;101720.63;5077244;28;20028;-35
2023/11/17 04:16:24;;;;;;;6.82;6.13;;;;;;;4.63;100.00;101716.94;5076147;28;20010;-35
2023/11/17 04:18:49;;;;;;;7.37;6.63;;;;;;;4.73;100.00;101708.72;5076178;28;20500;-35
2023/11/17 04:21:15;;;;;;;10.37;7.27;;;;;;;4.73;100.00;101714.06;5076476;28;20600;-35
2023/11/17 04:23:41;;;;;;;9.98;8.15;;;;;;;4.64;100.00;101710.59;5074792;28;20025;-35
2023/11/17 04:26:09;;;;;;;9.45;7.00;;;;;;;4.69;100.00;101707.41;5076311;28;20039;-35
2023/11/17 04:28:38;;;;;;;7.80;6.43;;;;;;;4.77;100.00;101702.84;5075571;28;20035;-35
2023/11/17 04:31:04;;;;;;;8.70;7.90;;;;;;;4.67;100.00;101707.56;5076482;28;20033;-35
2023/11/17 04:33:30;;;;;;;8.48;7.68;;;;;;;4.67;100.00;101706.72;5076644;28;20029;-35
2023/11/17 04:35:55;;;;;;;8.68;7.65;;;;;;;4.65;100.00;101699.72;5076049;28;20529;-35
2023/11/17 04:38:21;;;;;;;9.25;7.95;;;;;;;4.70;100.00;101709.91;5076023;28;20502;-35
2023/11/17 04:40:47;;;;;;;9.10;7.43;;;;;;;4.60;100.00;101706.59;5075531;28;20040;-35
2023/11/17 04:43:12;;;;;;;;;;;;;;;4.73;100.00;101719.44;5076364;28;20028;-35
2023/11/17 04:45:42;;;;;;;8.87;7.37;;;;;;;4.72;100.00;101717.78;5075646;28;19944;-35
2023/11/17 04:48:09;;;;;;;8.10;7.30;;;;;;;4.62;100.00;101704.56;5076094;28;20286;-35
2023/11/17 04:50:34;;;;;;;;;;;;;;;4.79;100.00;101738.38;5075702;28;20100;-35
2023/11/17 04:53:01;;;;;;;8.35;7.45;;;;;;;4.73;100.00;101728.31;5075162;28;19959;-35
2023/11/17 04:55:26;;;;;;;11.23;8.95;;;;;;;4.69;100.00;101732.38;5075915;28;20020;-35
2023/11/17 04:57:52;;;;;;;10.95;7.78;;;;;;;4.66;100.00;101727.34;5075340;28;20040;-35
2023/11/17 05:00:17;;;;;;;9.03;8.13;;;;;;;4.66;100.00;101727.34;5075404;28;20035;-35
2023/11/17 05:02:43;;;;;;;9.03;8.00;;;;;;;4.65;100.00;101713.09;5075487;28;20033;-35
2023/11/17 05:05:12;;;;;;;10.13;8.25;;;;;;;4.67;100.00;101723.63;5075298;28;20025;-35
2023/11/17 05:07:44;;;;;;;9.52;7.97;;;;;;;4.73;100.00;101722.94;5075127;28;20078;-35
2023/11/17 05:10:11;;;;;;;8.40;7.50;;;;;;;4.69;100.00;101710.09;5075976;28;20029;-35
2023/11/17 05:12:37;;;;;;;8.45;7.35;;;;;;;4.81;100.00;101725.63;5074820;28;20491;-35
2023/11/17 05:15:04;;;;;;;8.57;7.43;;;;;;;4.83;100.00;101723.63;5075075;28;20494;-35
2023/11/17 05:17:34;;;;;;;8.90;7.85;;;;;;;4.82;100.00;101723.78;5075214;28;20067;-35
2023/11/17 05:20:00;;;;;;;7.97;7.25;;;;;;;4.80;100.00;101721.28;5074616;28;20021;-35
2023/11/17 05:22:25;;;;;;;8.32;7.50;;;;;;;4.85;100.00;101728.78;5075206;28;20048;-35
2023/11/17 05:24:53;;;;;;;9.50;7.32;;;;;;;4.79;100.00;101726.81;5074571;28;20492;-35
2023/11/17 05:27:18;;;;;;;10.02;7.88;;;;;;;4.71;100.00;101718.78;5074756;28;20039;-35
2023/11/17 05:29:44;;;;;;;8.53;7.67;;;;;;;4.81;100.00;101735.50;5075010;28;20103;-35
2023/11/17 05:32:09;;;;;;;10.33;8.13;;;;;;;4.76;100.00;101721.78;5074702;28;20385;-35
2023/11/17 05:34:35;;;;;;;9.18;8.10;;;;;;;4.81;100.00;101741.69;5074341;28;20655;-35
2023/11/17 05:37:01;;;;;;;10.07;8.90;;;;;;;4.65;100.00;101715.78;5074544;28;20031;-35
2023/11/17 05:39:26;;;;;;;10.77;9.20;;;;;;;4.75;100.00;101733.50;5074543;28;20032;-35
2023/11/17 05:41:52;;;;;;;10.30;9.13;;;;;;;4.72;100.00;101732.00;5073590;28;20101;-35
2023/11/17 05:44:18;;;;;;;9.75;8.75;;;;;;;4.66;100.00;101732.69;5074210;28;20036;-35
2023/11/17 05:46:44;;;;;;;11.50;9.57;;;;;;;4.65;100.00;101725.66;5074420;28;20032;-35
2023/11/17 05:49:09;;;;;;;13.27;10.50;;;;;;;4.62;100.00;101705.41;5074125;28;20064;-35
2023/11/17 05:51:35;;;;;;;14.40;11.88;;;;;;;4.69;100.00;101729.69;5075169;28;20259;-35
2023/11/17 05:54:01;;;;;;;16.60;14.38;;;;;;;4.69;100.00;101724.31;5074502;28;20025;-35
2023/11/17 05:56:26;;;;;;;19.33;17.33;;;;;;;4.70;100.00;101733.19;5074373;28;20516;-35
2023/11/17 05:58:52;;;;;;;19.90;17.10;;;;;;;4.68;100.00;101730.66;5074183;28;20134;-35
2023/11/17 06:01:17;;;;;;;17.77;15.88;;;;;;;4.67;100.00;101734.34;5075004;28;20020;-35
2023/11/17 06:03:42;;;;;;;16.42;14.75;;;;;;;4.69;100.00;101737.72;5074158;28;20484;-35
2023/11/17 06:06:09;;;;;;;15.20;13.67;;;;;;;4.67;100.00;101734.34;5073873;28;20042;-35
2023/11/17 06:08:35;;;;;;;14.90;13.40;;;;;;;4.66;100.00;101738.03;5073693;28;20453;-35
2023/11/17 06:11:00;;;;;;;16.42;13.43;;;;;;;4.65;100.00;101739.91;5074344;28;20078;-35
2023/11/17 06:13:26;;;;;;;14.32;12.80;;;;;;;4.70;100.00;101743.91;5074166;28;20406;-35
2023/11/17 06:15:52;;;;;;;18.92;14.98;;;;;;;4.70;100.00;101743.91;5073840;28;20028;-35
2023/11/17 06:18:17;;;;;;;16.98;15.20;;;;;;;4.68;100.00;101743.22;5073787;28;20051;-35
2023/11/17 06:20:42;;;;;;;17.13;15.40;;;;;;;4.66;100.00;101754.13;5073570;28;20387;-35
2023/11/17 06:23:11;;;;;;;18.60;16.60;;;;;;;4.61;100.00;101757.31;5074307;28;20024;-35
2023/11/17 06:25:36;;;;;;;18.27;16.35;;;;;;;4.57;100.00;101760.50;5074096;28;20107;-35
2023/11/17 06:28:03;;;;;;;18.07;15.63;;;;;;;4.58;100.00;101759.47;5073427;28;20107;-35
2023/11/17 06:30:29;;;;;;;21.73;18.42;;;;;;;4.43;100.00;101732.53;5073631;28;20255;-35
2023/11/17 06:32:55;;;;;;;26.27;17.30;;;;;;;4.68;100.00;101767.34;5074784;28;20043;-35
2023/11/17 06:35:20;;;;;;;16.67;13.40;;;;;;;4.75;100.00;101763.81;5073969;28;20033;-35
2023/11/17 06:37:45;;;;;;;17.73;14.30;;;;;;;4.84;100.00;101772.69;5073578;28;20032;-35
2023/11/17 06:40:11;;;;;;;14.93;11.93;;;;;;;4.90;100.00;101772.84;5073320;28;20107;-35
2023/11/17 06:42:38;;;;;;;16.73;12.93;;;;;;;4.95;100.00;101771.50;5073493;28;20073;-35
2023/11/17 06:45:04;;;;;;;14.60;12.68;;;;;;;4.99;100.00;101770.16;5074350;28;20028;-35
2023/11/17 06:47:30;;;;;;;14.10;12.60;;;;;;;4.98;100.00;101774.66;5073697;28;20024;-35
2023/11/17 06:49:55;;;;;;;14.87;12.83;;;;;;;4.99;100.00;101778.19;5074065;28;20063;-35
2023/11/17 06:52:20;;;;;;;13.47;11.43;;;;;;;4.87;100.00;101762.44;5073599;28;20722;-35
2023/11/17 06:54:46;;;;;;;11.77;10.10;;;;;;;5.05;100.00;101789.06;5073612;28;20524;-35
2023/11/17 06:57:11;;;;;;;11.37;10.10;;;;;;;5.11;100.00;101785.66;5074465;28;20043;-35
2023/11/17 06:59:36;;;;;;;15.47;11.03;;;;;;;5.08;100.00;101787.88;5073051;28;20032;-35
2023/11/17 07:02:03;;;;;;;13.40;11.63;;;;;;;5.01;100.00;101778.84;5073683;28;20024;-35
2023/11/17 07:04:30;;;;;;;12.00;10.57;;;;;;;5.14;100.00;101785.34;5073358;28;20029;-35
2023/11/17 07:06:55;;;;;;;12.00;10.00;;;;;;;5.19;100.00;101792.88;5073368;28;20036;-35
2023/11/17 07:09:23;;;;;;;13.07;11.23;;;;;;;5.03;100.00;101760.75;5073034;28;20032;-35
2023/11/17 07:11:51;;;;;;;13.80;11.93;;;;;;;5.15;100.00;101796.91;5074053;28;20121;-35
2023/11/17 07:14:19;;;;;;;13.43;10.15;;;;;;;5.23;100.00;101810.28;5073186;28;20063;-35
2023/11/17 07:16:46;;;;;;;12.60;11.27;;;;;;;5.24;100.00;101792.34;5073721;28;20028;-35
2023/11/17 07:19:16;;;;;;;13.82;12.32;;;;;;;5.15;100.00;101794.22;5076271;28;20043;-35
2023/11/17 07:21:42;;;;;;;13.85;12.02;;;;;;;5.22;100.00;101814.00;5077462;28;20461;-35
2023/11/17 07:24:10;;;;;;;14.43;11.85;;;;;;;5.20;100.00;101818.66;5077118;28;20027;-35
2023/11/17 07:26:38;;;;;;;13.45;11.40;;;;;;;5.28;100.00;101828.56;5077599;28;20043;-35
2023/11/17 07:29:04;;;;;;;15.88;12.20;;;;;;;5.26;100.00;101822.50;5077043;28;20082;-35
2023/11/17 07:31:40;;;;;;;13.25;11.00;;;;;;;5.31;100.00;101829.00;5077837;28;20021;-35
2023/11/17 07:34:09;;;;;;;20.83;12.43;;;;;;;5.22;100.00;101805.94;5076968;28;20028;-35
2023/11/17 07:36:38;;;;;;;13.32;10.38;;;;;;;5.46;100.00;101825.63;5077123;28;20025;-35
2023/11/17 07:39:06;;;;;;;16.10;12.25;;;;;;;5.37;100.00;101824.84;5076881;28;20051;-35
2023/11/17 07:41:33;;;;;;;13.75;10.50;;;;;;;5.47;100.00;101816.59;5077677;28;20031;-35
2023/11/17 07:43:59;;;;;;;17.58;11.20;;;;;;;5.48;100.00;101816.41;5076717;28;20082;-35
2023/11/17 07:46:25;;;;;;;13.00;11.35;;;;;;;5.52;100.00;101819.59;5076732;28;20044;-35
2023/11/17 07:48:53;;;;;;;14.10;12.70;;;;;;;5.56;100.00;101829.78;5075480;28;20020;-35
2023/11/17 07:51:19;;;;;;;15.35;13.52;;;;;;;5.59;100.00;101831.28;5076940;28;20263;-35
2023/11/17 07:53:45;;;;;;;18.05;15.90;;;;;;;5.59;100.00;101833.97;5076614;28;20035;-35
2023/11/17 07:56:11;;;;;;;17.30;15.48;;;;;;;5.66;100.00;101835.78;5076261;28;20376;-35
2023/11/17 07:58:37;;;;;;;19.02;17.00;;;;;;;5.63;100.00;101833.44;5077362;28;20376;-35
2023/11/17 08:01:03;;;;;;;21.90;17.67;;;;;;;5.70;100.00;101830.88;5076258;28;20031;-35
2023/11/17 08:03:32;;;;;;;19.05;16.88;;;;;;;5.75;100.00;101835.72;5076733;28;20115;-35
2023/11/17 08:05:57;;;;;;;19.38;17.38;;;;;;;5.72;100.00;101844.97;5077209;28;20039;-35
2023/11/17 08:08:23;;;;;;;18.98;16.88;;;;;;;5.73;100.00;101835.91;5076365;28;20021;-35
2023/11/17 08:10:48;;;;;;;18.97;16.97;;;;;;;5.73;100.00;101843.13;5076385;28;20032;-35
2023/11/17 08:13:15;;;;;;;17.55;15.73;;;;;;;5.77;100.00;101850.66;5075953;28;20169;-35
2023/11/17 08:15:41;;;;;;;19.52;17.38;;;;;;;5.58;100.00;101824.25;5076521;28;20035;-35
2023/11/17 08:18:08;;;;;;;16.83;15.05;;;;;;;5.84;100.00;101850.78;5074632;28;20472;-35
2023/11/17 08:20:34;;;;;;;16.38;14.38;;;;;;;5.89;100.00;101853.78;5075794;28;20061;-35
2023/11/17 08:22:59;;;;;;;17.97;15.10;;;;;;;5.91;100.00;101851.78;5076091;28;20123;-35
2023/11/17 08:25:29;;;;;;;16.93;15.13;;;;;;;5.79;100.00;101845.09;5076073;28;20302;-35
2023/11/17 08:27:55;;;;;;;14.98;13.40;;;;;;;5.92;100.00;101857.00;5076537;28;20036;-35
2023/11/17 08:30:20;;;;;;;17.67;14.85;;;;;;;5.93;100.00;101850.59;5075510;28;20036;-35
2023/11/17 08:32:47;;;;;;;17.48;14.73;;;;;;;5.97;100.00;101855.63;5076767;28;20032;-35
2023/11/17 08:35:12;;;;;;;;;;;;;;;6.01;100.00;101860.47;5077181;28;20059;-35
2023/11/17 08:37:37;;;;;;;16.63;14.05;;;;;;;5.85;100.00;101839.03;5076037;28;19952;-35
2023/11/17 08:40:10;;;;;;;18.63;14.13;;;;;;;5.95;100.00;101853.09;5076379;28;20081;-35
2023/11/17 08:42:37;;;;;;;20.08;16.95;;;;;;;6.00;100.00;101866.00;5076548;28;20028;-35
2023/11/17 08:45:09;;;;;;;18.10;15.07;;;;;;;6.09;100.00;101870.31;5075915;28;20062;-35
2023/11/17 08:47:38;;;;;;;16.95;15.13;;;;;;;6.10;100.00;101864.78;5075931;28;20115;-35
2023/11/17 08:50:06;;;;;;;19.85;16.73;;;;;;;6.08;100.00;101850.69;5076157;28;20514;-35
2023/11/17 08:52:34;;;;;;;18.70;16.70;;;;;;;6.14;100.00;101865.25;5076139;28;20029;-35
2023/11/17 08:55:07;;;;;;;18.77;16.77;;;;;;;6.18;100.00;101869.25;5075169;28;20495;-35
2023/11/17 08:57:36;;;;;;;17.50;15.18;;;;;;;6.16;100.00;101869.44;5075750;28;20079;-35
2023/11/17 09:00:13;;;;;;;18.17;14.80;;;;;;;6.20;100.00;101875.31;5075681;28;20083;-35
2023/11/17 09:02:45;;;;;;;17.90;15.50;;;;;;;6.18;100.00;101869.25;5075285;28;20119;-35
2023/11/17 09:05:11;;;;;;;21.92;16.40;;;;;;;6.15;100.00;101864.25;5075868;28;20031;-35
2023/11/17 09:07:42;;;;;;;;;;;;;;;6.30;100.00;101878.59;5075632;28;20039;-35
2023/11/17 09:10:09;;;;;;;16.45;14.63;;;;;;;6.25;100.00;101881.00;5075514;28;19908;-35
2023/11/17 09:12:42;;;;;;;18.08;14.20;;;;;;;6.31;100.00;101877.59;5075696;28;20190;-35
2023/11/17 09:15:12;;;;;;;18.98;15.20;;;;;;;6.30;100.00;101878.59;5075834;28;20419;-35
2023/11/17 09:17:40;;;;;;;19.85;15.15;;;;;;;6.21;100.00;101870.78;5075719;28;20472;-35
2023/11/17 09:20:11;;;;;;;18.83;15.93;;;;;;;6.29;100.00;101886.81;5074877;28;20028;-35
2023/11/17 09:22:36;;;;;;;15.45;13.80;;;;;;;6.43;100.00;101907.56;5074657;28;20039;-35
2023/11/17 09:25:03;;;;;;;16.90;13.83;;;;;;;6.45;100.00;101908.22;5074619;28;20025;-35
2023/11/17 09:27:29;;;;;;;17.55;15.65;;;;;;;6.43;100.00;101905.69;5075607;28;20266;-35
2023/11/17 09:29:54;;;;;;;16.67;14.90;;;;;;;6.48;100.00;101915.91;5075055;28;20111;-35
2023/11/17 09:32:19;;;;;;;21.70;16.77;;;;;;;6.31;100.00;101882.13;5075371;28;20091;-35
2023/11/17 09:34:45;;;;;;;20.33;17.42;;;;;;;6.53;100.00;101913.53;5074383;28;20098;-35
2023/11/17 09:37:11;;;;;;;19.43;16.90;;;;;;;6.61;100.00;101910.81;5075140;28;20107;-35
2023/11/17 09:39:38;;;;;;;22.23;18.63;;;;;;;6.73;100.00;101924.66;5074538;28;20048;-35
2023/11/17 09:42:03;;;;;;;21.15;17.13;;;;;;;6.80;100.00;101914.88;5074632;28;20368;-35
2023/11/17 09:44:33;;;;;;;20.83;17.75;;;;;;;6.88;100.00;101930.94;5075296;28;20034;-35
2023/11/17 09:47:11;;;;;;;22.10;17.70;;;;;;;6.91;100.00;101925.19;5074734;28;20040;-35
2023/11/17 09:49:39;;;;;;;19.88;16.80;;;;;;;7.08;100.00;101941.22;5074430;28;20061;-35
2023/11/17 09:52:07;;;;;;;19.48;16.73;;;;;;;7.13;100.00;101945.03;5074387;28;20025;-35
2023/11/17 09:54:34;;;;;;;21.88;17.58;;;;;;;7.24;100.00;101946.44;5074001;28;20540;-35
2023/11/17 09:57:01;;;;;;;19.58;16.85;;;;;;;7.30;100.00;101940.31;5074568;28;20381;-35
2023/11/17 09:59:27;;;;;;;19.77;16.55;;;;;;;7.36;100.00;101944.94;5074522;28;20032;-35
2023/11/17 10:01:53;;;;;;;18.17;14.63;;;;;;;7.46;100.00;101948.22;5074495;28;20078;-35
2023/11/17 10:04:20;;;;;;;17.42;14.85;;;;;;;7.47;100.00;101941.84;5074123;28;20027;-35
2023/11/17 10:06:46;;;;;;;15.80;14.10;;;;;;;7.63;100.00;101950.75;5074344;28;20416;-35
2023/11/17 10:09:17;;;;;;;15.55;13.15;;;;;;;7.73;100.00;101957.53;5074537;28;20392;-35
2023/11/17 10:11:46;;;;;;;16.42;12.93;;;;;;;7.73;100.00;101941.38;5074285;28;20127;-35
2023/11/17 10:14:14;;;;;;;14.50;12.65;;;;;;;7.75;100.00;101928.56;5073841;28;20028;-35
2023/11/17 10:16:42;;;;;;;13.95;11.77;;;;;;;7.91;100.00;101948.28;5074369;28;20026;-35
2023/11/17 10:19:12;;;;;;;17.13;11.02;;;;;;;7.90;100.00;101947.41;5074675;28;20043;-35
2023/11/17 10:21:37;;;;;;;12.32;9.88;;;;;;;7.87;100.00;101939.72;5073874;28;20032;-35
2023/11/17 10:24:03;;;;;;;10.50;8.98;;;;;;;7.98;100.00;101950.00;5073486;28;20029;-35
2023/11/17 10:26:30;;;;;;;;;;;;;;;8.15;100.00;101958.75;5074227;28;20131;-35
2023/11/17 10:28:59;;;;;;;11.48;9.15;;;;;;;8.12;100.00;101956.41;5073487;28;19908;-35
2023/11/17 10:31:27;;;;;;;12.70;9.75;;;;;;;8.07;100.00;101947.22;5074280;28;20372;-35
2023/11/17 10:33:54;;;;;;;11.13;9.73;;;;;;;8.14;100.00;101948.97;5072680;28;20384;-35
2023/11/17 10:36:22;;;;;;;10.82;9.45;;;;;;;8.34;100.00;101960.00;5073882;28;20494;-35
2023/11/17 10:39:02;;;;;;;11.75;9.48;;;;;;;8.46;100.00;101966.59;5073303;28;20052;-35
2023/11/17 10:41:30;;;;;;;10.88;9.30;;;;;;;8.55;100.00;101967.34;5073834;28;20032;-35
2023/11/17 10:43:58;;;;;;;9.13;8.07;;;;;;;8.57;100.00;101964.44;5074090;28;20102;-35
2023/11/17 10:46:27;;;;;;;9.85;6.90;;;;;;;8.60;100.00;101958.69;5073847;28;20029;-35
2023/11/17 10:48:58;;;;;;;7.35;6.60;;;;;;;8.67;100.00;101956.88;5073280;28;20024;-35
2023/11/17 10:51:24;;;;;;;7.57;6.15;;;;;;;8.78;100.00;101975.25;5073626;28;20029;-35
2023/11/17 10:54:12;;;;;;;8.55;6.88;;;;;;;8.82;100.00;101971.13;5073749;28;20374;-35
2023/11/17 10:56:38;;;;;;;9.35;6.85;;;;;;;8.74;100.00;101965.88;5073592;28;20048;-35
2023/11/17 10:59:05;;;;;;;10.23;7.43;;;;;;;8.82;100.00;101979.22;5073972;28;20425;-35
2023/11/17 11:01:31;;;;;;;12.18;8.27;;;;;;;8.87;100.00;101974.09;5074040;28;20032;-35
2023/11/17 11:03:58;;;;;;;11.02;8.77;;;;;;;8.86;100.00;101982.38;5073046;28;20020;-35
2023/11/17 11:06:27;;;;;;;9.38;7.95;;;;;;;8.82;100.00;101984.63;5073610;28;20033;-35
2023/11/17 11:08:58;;;;;;;10.57;7.38;;;;;;;8.83;100.00;101988.97;5073612;28;20411;-35
2023/11/17 11:11:25;;;;;;;11.25;8.63;;;;;;;8.84;100.00;101987.97;5073620;28;20028;-35
2023/11/17 11:13:55;;;;;;;11.43;9.07;;;;;;;8.74;100.00;101971.28;5072928;28;20029;-35
2023/11/17 11:16:22;;;;;;;10.27;8.73;;;;;;;8.81;100.00;101984.81;5073285;28;20056;-35
2023/11/17 11:18:48;;;;;;;11.63;8.93;;;;;;;8.82;100.00;101979.22;5073271;28;20029;-35
2023/11/17 11:21:17;;;;;;;10.00;8.35;;;;;;;8.87;100.00;101987.56;5073521;28;20107;-35